Time,TemperatureF,DewpointF,PressureIn,WindDirection,WindDirectionDegrees,WindSpeedMPH,WindSpeedGustMPH,Humidity,HourlyPrecipIn,Conditions,Clouds,dailyrainin,SolarRadiationWatts/m^2,SoftwareType,DateUTC
2013-08-04 00:11:00,61.2,55.0,30.04,WNW,296,2.0,-999.0,80,-99.99,,,0.00,0,weatherlink.com 1.10,2013-08-04 04:11:00,
2013-08-04 00:27:00,61.1,55.0,30.05,NW,310,0.0,-999.0,81,-99.99,,,0.00,0,weatherlink.com 1.10,2013-08-04 04:27:00,
2013-08-04 00:41:00,60.6,55.0,30.05,NW,312,2.0,-999.0,82,-99.99,,,0.00,0,weatherlink.com 1.10,2013-08-04 04:41:00,
2013-08-04 00:56:00,60.0,55.0,30.05,NNW,330,2.0,-999.0,83,-99.99,,,0.00,0,weatherlink.com 1.10,2013-08-04 04:56:00,
2013-08-04 01:11:00,59.8,55.0,30.05,NNW,331,2.0,-999.0,84,-99.99,,,0.00,0,weatherlink.com 1.10,2013-08-04 05:11:00,
2013-08-04 01:26:00,60.0,55.0,30.05,North,4,3.0,-999.0,83,-99.99,,,0.00,0,weatherlink.com 1.10,2013-08-04 05:26:00,
2013-08-04 01:41:00,60.4,55.0,30.05,NNW,343,3.0,-999.0,81,-99.99,,,0.00,0,weatherlink.com 1.10,2013-08-04 05:41:00,
2013-08-04 01:57:00,60.1,55.0,30.06,NNW,335,3.0,-999.0,82,-99.99,,,0.00,0,weatherlink.com 1.10,2013-08-04 05:57:00,
2013-08-04 02:11:00,59.8,54.0,30.06,NNW,340,4.0,-999.0,82,-99.99,,,0.00,0,weatherlink.com 1.10,2013-08-04 06:11:00,
2013-08-04 02:26:00,59.6,54.0,30.07,NNW,341,2.0,-999.0,83,-99.99,,,0.00,0,weatherlink.com 1.10,2013-08-04 06:26:00,
2013-08-04 02:41:00,59.1,54.0,30.07,NNW,330,1.0,-999.0,84,-99.99,,,0.00,0,weatherlink.com 1.10,2013-08-04 06:41:00,
2013-08-04 02:56:00,58.8,54.0,30.07,NNW,341,1.0,-999.0,84,-99.99,,,0.00,0,weatherlink.com 1.10,2013-08-04 06:56:00,
2013-08-04 03:11:00,58.7,54.0,30.07,NNW,335,3.0,-999.0,84,-99.99,,,0.00,0,weatherlink.com 1.10,2013-08-04 07:11:00,
2013-08-04 03:26:00,58.2,54.0,30.08,NNW,335,0.0,-999.0,86,-99.99,,,0.00,0,weatherlink.com 1.10,2013-08-04 07:26:00,
2013-08-04 03:41:00,57.4,54.0,30.07,North,359,2.0,-999.0,88,-99.99,,,0.00,0,weatherlink.com 1.10,2013-08-04 07:41:00,
2013-08-04 03:56:00,57.2,54.0,30.08,North,359,0.0,-999.0,88,-99.99,,,0.00,0,weatherlink.com 1.10,2013-08-04 07:56:00,
2013-08-04 04:11:00,56.7,54.0,30.08,North,359,0.0,-999.0,89,-99.99,,,0.00,0,weatherlink.com 1.10,2013-08-04 08:11:00,
2013-08-04 04:26:00,56.4,54.0,30.09,North,359,0.0,-999.0,90,-99.99,,,0.00,0,weatherlink.com 1.10,2013-08-04 08:26:00,
2013-08-04 04:41:00,56.4,54.0,30.09,North,359,0.0,-999.0,90,-99.99,,,0.00,0,weatherlink.com 1.10,2013-08-04 08:41:00,
2013-08-04 04:56:00,55.7,54.0,30.09,North,359,0.0,-999.0,92,-99.99,,,0.00,0,weatherlink.com 1.10,2013-08-04 08:56:00,
2013-08-04 05:11:00,55.2,53.0,30.09,North,359,0.0,-999.0,93,-99.99,,,0.00,0,weatherlink.com 1.10,2013-08-04 09:11:00,
2013-08-04 05:27:00,55.2,54.0,30.09,North,359,2.0,-999.0,94,-99.99,,,0.00,0,weatherlink.com 1.10,2013-08-04 09:27:00,
2013-08-04 05:41:00,55.4,54.0,30.09,NNW,345,2.0,-999.0,94,-99.99,,,0.00,0,weatherlink.com 1.10,2013-08-04 09:41:00,
2013-08-04 05:57:00,55.8,54.0,30.08,NNW,345,0.0,-999.0,93,-99.99,,,0.00,0,weatherlink.com 1.10,2013-08-04 09:57:00,
2013-08-04 06:11:00,55.1,53.0,30.08,NNW,345,0.0,-999.0,93,-99.99,,,0.00,0,weatherlink.com 1.10,2013-08-04 10:11:00,
2013-08-04 06:26:00,54.5,53.0,30.09,NNW,345,1.0,-999.0,94,-99.99,,,0.00,0,weatherlink.com 1.10,2013-08-04 10:26:00,
2013-08-04 06:41:00,54.9,54.0,30.10,NNW,345,0.0,-999.0,95,-99.99,,,0.00,0,weatherlink.com 1.10,2013-08-04 10:41:00,
2013-08-04 06:56:00,54.7,53.0,30.11,NNW,345,0.0,-999.0,95,-99.99,,,0.00,9,weatherlink.com 1.10,2013-08-04 10:56:00,
2013-08-04 07:11:00,54.8,53.0,30.11,NNW,345,0.0,-999.0,95,-99.99,,,0.00,16,weatherlink.com 1.10,2013-08-04 11:11:00,
2013-08-04 07:26:00,55.1,54.0,30.12,NNW,345,0.0,-999.0,95,-99.99,,,0.00,49,weatherlink.com 1.10,2013-08-04 11:26:00,
2013-08-04 07:41:00,55.7,54.0,30.13,NNW,337,0.0,-999.0,95,-99.99,,,0.00,88,weatherlink.com 1.10,2013-08-04 11:41:00,
2013-08-04 07:56:00,56.8,55.0,30.13,NW,324,2.0,-999.0,94,-99.99,,,0.00,130,weatherlink.com 1.10,2013-08-04 11:56:00,
2013-08-04 08:11:00,58.3,57.0,30.13,NNW,337,0.0,-999.0,94,-99.99,,,0.00,163,weatherlink.com 1.10,2013-08-04 12:11:00,
2013-08-04 08:27:00,59.7,57.0,30.13,North,8,4.0,-999.0,91,-99.99,,,0.00,213,weatherlink.com 1.10,2013-08-04 12:27:00,
2013-08-04 08:42:00,60.8,58.0,30.13,North,359,1.0,-999.0,89,-99.99,,,0.00,243,weatherlink.com 1.10,2013-08-04 12:42:00,
2013-08-04 08:57:00,61.8,58.0,30.13,North,4,2.0,-999.0,86,-99.99,,,0.00,295,weatherlink.com 1.10,2013-08-04 12:57:00,
2013-08-04 09:11:00,62.9,58.0,30.13,NNE,13,3.0,-999.0,85,-99.99,,,0.00,339,weatherlink.com 1.10,2013-08-04 13:11:00,
2013-08-04 09:26:00,63.9,58.0,30.14,NNE,16,3.0,-999.0,82,-99.99,,,0.00,385,weatherlink.com 1.10,2013-08-04 13:26:00,
2013-08-04 09:41:00,64.7,59.0,30.14,North,4,0.0,-999.0,83,-99.99,,,0.00,429,weatherlink.com 1.10,2013-08-04 13:41:00,
2013-08-04 10:27:00,67.9,60.0,30.14,North,4,3.0,-999.0,77,-99.99,,,0.00,561,weatherlink.com 1.10,2013-08-04 14:27:00,
2013-08-04 10:41:00,69.4,60.0,30.15,NNW,347,2.0,-999.0,72,-99.99,,,0.00,605,weatherlink.com 1.10,2013-08-04 14:41:00,
2013-08-04 10:57:00,69.2,60.0,30.15,NE,50,2.0,-999.0,73,-99.99,,,0.00,640,weatherlink.com 1.10,2013-08-04 14:57:00,
2013-08-04 11:11:00,69.3,60.0,30.15,NE,54,2.0,-999.0,71,-99.99,,,0.00,679,weatherlink.com 1.10,2013-08-04 15:11:00,
2013-08-04 11:27:00,70.2,60.0,30.15,North,8,4.0,-999.0,70,-99.99,,,0.00,714,weatherlink.com 1.10,2013-08-04 15:27:00,
2013-08-04 11:41:00,70.1,59.0,30.14,NNE,28,1.0,-999.0,69,-99.99,,,0.00,130,weatherlink.com 1.10,2013-08-04 15:41:00,
2013-08-04 11:56:00,71.2,60.0,30.14,NNE,17,3.0,-999.0,68,-99.99,,,0.00,900,weatherlink.com 1.10,2013-08-04 15:56:00,
2013-08-04 12:11:00,70.8,61.0,30.14,North,4,6.0,-999.0,70,-99.99,,,0.00,974,weatherlink.com 1.10,2013-08-04 16:11:00,
2013-08-04 12:27:00,71.1,58.0,30.14,WNW,297,3.0,-999.0,64,-99.99,,,0.00,165,weatherlink.com 1.10,2013-08-04 16:27:00,
2013-08-04 12:41:00,71.0,59.0,30.14,North,354,5.0,-999.0,66,-99.99,,,0.00,223,weatherlink.com 1.10,2013-08-04 16:41:00,
2013-08-04 12:57:00,71.9,59.0,30.13,NNW,339,3.0,-999.0,63,-99.99,,,0.00,197,weatherlink.com 1.10,2013-08-04 16:57:00,
2013-08-04 13:12:00,71.8,60.0,30.13,NW,325,6.0,-999.0,66,-99.99,,,0.00,1005,weatherlink.com 1.10,2013-08-04 17:12:00,
2013-08-04 13:27:00,72.4,59.0,30.13,North,4,5.0,-999.0,62,-99.99,,,0.00,1049,weatherlink.com 1.10,2013-08-04 17:27:00,
2013-08-04 13:42:00,72.4,59.0,30.12,NNW,333,7.0,-999.0,62,-99.99,,,0.00,1100,weatherlink.com 1.10,2013-08-04 17:42:00,
2013-08-04 13:57:00,72.7,60.0,30.12,North,8,1.0,-999.0,65,-99.99,,,0.00,984,weatherlink.com 1.10,2013-08-04 17:57:00,
2013-08-04 14:12:00,73.0,58.0,30.12,NNW,332,4.0,-999.0,59,-99.99,,,0.00,1027,weatherlink.com 1.10,2013-08-04 18:12:00,
2013-08-04 14:27:00,72.2,58.0,30.12,NNE,22,8.0,-999.0,61,-99.99,,,0.00,1025,weatherlink.com 1.10,2013-08-04 18:27:00,
2013-08-04 14:42:00,71.9,59.0,30.12,NNW,342,4.0,-999.0,64,-99.99,,,0.00,181,weatherlink.com 1.10,2013-08-04 18:42:00,
2013-08-04 14:57:00,72.8,57.0,30.12,North,359,8.0,-999.0,57,-99.99,,,0.00,956,weatherlink.com 1.10,2013-08-04 18:57:00,
2013-08-04 15:11:00,73.7,58.0,30.12,North,359,6.0,-999.0,58,-99.99,,,0.00,918,weatherlink.com 1.10,2013-08-04 19:11:00,
2013-08-04 15:27:00,72.9,59.0,30.12,North,8,7.0,-999.0,61,-99.99,,,0.00,868,weatherlink.com 1.10,2013-08-04 19:27:00,
2013-08-04 15:42:00,74.0,56.0,30.11,NNE,23,7.0,-999.0,54,-99.99,,,0.00,844,weatherlink.com 1.10,2013-08-04 19:42:00,
2013-08-04 15:56:00,74.4,58.0,30.10,North,350,4.0,-999.0,57,-99.99,,,0.00,942,weatherlink.com 1.10,2013-08-04 19:56:00,
2013-08-04 16:12:00,74.2,57.0,30.10,NW,314,4.0,-999.0,55,-99.99,,,0.00,844,weatherlink.com 1.10,2013-08-04 20:12:00,
2013-08-04 16:27:00,73.9,57.0,30.10,North,4,4.0,-999.0,55,-99.99,,,0.00,831,weatherlink.com 1.10,2013-08-04 20:27:00,
2013-08-04 16:42:00,72.9,57.0,30.09,NNE,33,4.0,-999.0,57,-99.99,,,0.00,731,weatherlink.com 1.10,2013-08-04 20:42:00,
2013-08-04 16:56:00,74.6,57.0,30.09,NNW,330,2.0,-999.0,54,-99.99,,,0.00,707,weatherlink.com 1.10,2013-08-04 20:56:00,
2013-08-04 17:11:00,74.4,56.0,30.09,NNE,13,5.0,-999.0,52,-99.99,,,0.00,693,weatherlink.com 1.10,2013-08-04 21:11:00,
2013-08-04 17:27:00,74.3,56.0,30.09,NNE,14,11.0,-999.0,54,-99.99,,,0.00,629,weatherlink.com 1.10,2013-08-04 21:27:00,
2013-08-04 17:42:00,74.2,54.0,30.09,North,4,4.0,-999.0,50,-99.99,,,0.00,127,weatherlink.com 1.10,2013-08-04 21:42:00,
2013-08-04 17:57:00,74.6,56.0,30.09,North,11,12.0,-999.0,52,-99.99,,,0.00,541,weatherlink.com 1.10,2013-08-04 21:57:00,
2013-08-04 18:11:00,74.7,56.0,30.10,NNE,20,9.0,-999.0,53,-99.99,,,0.00,512,weatherlink.com 1.10,2013-08-04 22:11:00,
2013-08-04 18:27:00,74.1,56.0,30.09,North,354,6.0,-999.0,53,-99.99,,,0.00,186,weatherlink.com 1.10,2013-08-04 22:27:00,
2013-08-04 18:42:00,73.1,56.0,30.09,NNW,348,3.0,-999.0,56,-99.99,,,0.00,158,weatherlink.com 1.10,2013-08-04 22:42:00,
2013-08-04 18:56:00,72.8,57.0,30.09,NNW,347,4.0,-999.0,59,-99.99,,,0.00,120,weatherlink.com 1.10,2013-08-04 22:56:00,
2013-08-04 19:12:00,72.4,58.0,30.09,NNW,337,2.0,-999.0,60,-99.99,,,0.00,104,weatherlink.com 1.10,2013-08-04 23:12:00,
2013-08-04 19:27:00,72.3,58.0,30.09,NNW,346,2.0,-999.0,62,-99.99,,,0.00,225,weatherlink.com 1.10,2013-08-04 23:27:00,
2013-08-04 19:42:00,72.3,58.0,30.09,NNW,331,2.0,-999.0,62,-99.99,,,0.00,121,weatherlink.com 1.10,2013-08-04 23:42:00,
2013-08-04 19:57:00,71.8,59.0,30.09,NNW,330,3.0,-999.0,64,-99.99,,,0.00,91,weatherlink.com 1.10,2013-08-04 23:57:00,
2013-08-04 20:11:00,70.7,59.0,30.09,North,4,2.0,-999.0,66,-99.99,,,0.00,21,weatherlink.com 1.10,2013-08-05 00:11:00,
2013-08-04 20:27:00,69.7,57.0,30.09,NNW,332,3.0,-999.0,65,-99.99,,,0.00,14,weatherlink.com 1.10,2013-08-05 00:27:00,
2013-08-04 20:42:00,68.9,57.0,30.08,NNW,332,0.0,-999.0,65,-99.99,,,0.00,7,weatherlink.com 1.10,2013-08-05 00:42:00,
2013-08-04 20:57:00,68.3,56.0,30.08,NNW,337,0.0,-999.0,66,-99.99,,,0.00,0,weatherlink.com 1.10,2013-08-05 00:57:00,
2013-08-04 21:11:00,67.8,57.0,30.09,NNW,337,0.0,-999.0,69,-99.99,,,0.00,0,weatherlink.com 1.10,2013-08-05 01:11:00,
2013-08-04 21:26:00,67.2,58.0,30.09,NNW,332,2.0,-999.0,72,-99.99,,,0.00,0,weatherlink.com 1.10,2013-08-05 01:26:00,
2013-08-04 21:41:00,66.7,58.0,30.09,NW,322,0.0,-999.0,73,-99.99,,,0.00,0,weatherlink.com 1.10,2013-08-05 01:41:00,
2013-08-04 21:56:00,66.5,57.0,30.09,NW,322,0.0,-999.0,72,-99.99,,,0.00,0,weatherlink.com 1.10,2013-08-05 01:56:00,
2013-08-04 22:12:00,66.3,57.0,30.09,North,359,0.0,-999.0,72,-99.99,,,0.00,0,weatherlink.com 1.10,2013-08-05 02:12:00,
2013-08-04 22:27:00,65.6,58.0,30.09,North,359,0.0,-999.0,77,-99.99,,,0.00,0,weatherlink.com 1.10,2013-08-05 02:27:00,
2013-08-04 22:42:00,64.7,58.0,30.09,North,359,0.0,-999.0,80,-99.99,,,0.00,0,weatherlink.com 1.10,2013-08-05 02:42:00,
2013-08-04 22:57:00,64.4,57.0,30.09,North,359,0.0,-999.0,77,-99.99,,,0.00,0,weatherlink.com 1.10,2013-08-05 02:57:00,
2013-08-04 23:11:00,64.7,58.0,30.09,North,359,0.0,-999.0,78,-99.99,,,0.00,0,weatherlink.com 1.10,2013-08-05 03:11:00,
2013-08-04 23:27:00,64.2,58.0,30.09,North,359,0.0,-999.0,80,-99.99,,,0.00,0,weatherlink.com 1.10,2013-08-05 03:27:00,
2013-08-04 23:42:00,63.9,58.0,30.08,North,359,0.0,-999.0,81,-99.99,,,0.00,0,weatherlink.com 1.10,2013-08-05 03:42:00,
2013-08-04 23:57:00,63.1,58.0,30.08,North,359,0.0,-999.0,83,-99.99,,,0.00,0,weatherlink.com 1.10,2013-08-05 03:57:00,